Bentley, Illinois
Current Conditions -  °F | °C
As of 11:35 AM on Wednesday 26 Nov 2014 (Local Time) from KMQB Reporting Station
Overcast Overcast  
Wind Chill: -6°   Ceiling: 4100
Heat Index:   Visibility: 7mi
Dew Point: -2°   Wind: 13mph
Humidity: 93%   Direction: 120°ESE
Pressure: 30.04"   Gusts: NA
Location:  40.4155°N, 91.0269°W
Report Text: KMQB 261735Z AUTO 12011KT 7SM SCT010 BKN041 OVC049 00/M01 A3004 RMK AO2 T10051015
Loading
Personal Weather Stations






























Interactive Weather Map New forecast layout! Learn more

10-Day Weather Forecast

Advertisements
Track Severe Weather on mobile